Terminal Aerodrome Forecast
Issued by NWS

Home | Current Version | Previous Version | Text Only | Print | Product List | Glossary On
Versions: 1 2 3 4 5 6 7 8 9 10 11 12 13 14 15 16 17 18 19 20 21 22 23
000
FTUS46 KSEW 012300 AAA
TAFSEA
TAF AMD
KSEA 012349Z 0200/0306 21014KT P6SM BKN050
      TEMPO 0200/0202 -SHRA BKN030
     FM020400 VRB05KT P6SM SCT040
     FM021000 18005KT P6SM BKN020
     FM021900 21006KT P6SM SCT040=

USA.gov is the U.S. government's official web portal to all federal, state and local government web resources and services.